createdAt,value
2018-05-13T00:00:18.445Z,99260.44
2018-05-13T00:02:46.043Z,99250.80
2018-05-13T00:05:13.705Z,99250.80
2018-05-13T00:07:41.197Z,99253.53
2018-05-13T00:10:08.804Z,99255.36
2018-05-13T00:12:36.381Z,99254.91
2018-05-13T00:15:03.938Z,99250.12
2018-05-13T00:17:31.468Z,99259.80
2018-05-13T00:19:59.635Z,99253.34
2018-05-13T00:22:27.201Z,99251.14
2018-05-13T00:24:54.825Z,99245.78
2018-05-13T00:27:22.404Z,99257.06
2018-05-13T00:29:50.021Z,99253.23
2018-05-13T00:32:17.577Z,99247.56
2018-05-13T00:34:45.165Z,99248.17
2018-05-13T00:37:12.693Z,99246.88
2018-05-13T00:39:40.252Z,99245.67
2018-05-13T00:42:07.777Z,99250.23
2018-05-13T00:44:35.309Z,99250.38
2018-05-13T00:47:02.831Z,99243.53
2018-05-13T00:49:30.392Z,99241.52
2018-05-13T00:51:57.943Z,99239.05
2018-05-13T00:54:37.185Z,99238.81
2018-05-13T00:57:04.746Z,99240.78
2018-05-13T00:59:32.310Z,99234.74
2018-05-13T01:01:59.852Z,99238.66
2018-05-13T01:04:27.403Z,99234.22
2018-05-13T01:06:54.923Z,99236.45
2018-05-13T01:09:22.480Z,99234.41
2018-05-13T01:11:50.063Z,99231.25
2018-05-13T01:14:18.547Z,99223.84
2018-05-13T01:16:46.075Z,99225.63
2018-05-13T01:19:13.618Z,99226.65
2018-05-13T01:21:41.166Z,99219.55
2018-05-13T01:24:08.737Z,99219.70
2018-05-13T01:26:36.252Z,99224.75
2018-05-13T01:29:03.832Z,99212.03
2018-05-13T01:31:31.379Z,99224.97
2018-05-13T01:33:58.894Z,99226.37
2018-05-13T01:36:26.436Z,99227.80
2018-05-13T01:38:53.993Z,99214.85
2018-05-13T01:41:21.537Z,99222.98
2018-05-13T01:43:49.108Z,99225.98
2018-05-13T01:46:16.684Z,99221.62
2018-05-13T01:48:44.224Z,99221.62
2018-05-13T01:51:11.798Z,99222.98
2018-05-13T01:53:39.310Z,99225.67
2018-05-13T01:56:06.865Z,99214.67
2018-05-13T01:58:34.381Z,99222.64
2018-05-13T02:01:01.980Z,99222.30
2018-05-13T02:03:29.501Z,99227.71
2018-05-13T02:05:57.068Z,99232.64
2018-05-13T02:08:24.634Z,99233.59
2018-05-13T02:10:52.175Z,99256.42
2018-05-13T02:13:19.696Z,99231.27
2018-05-13T02:15:47.236Z,99249.61
2018-05-13T02:18:14.750Z,99238.15
2018-05-13T02:20:42.306Z,99244.41
2018-05-13T02:23:09.839Z,99248.85
2018-05-13T02:25:37.368Z,99235.58
2018-05-13T02:28:04.900Z,99241.02
2018-05-13T02:30:32.468Z,99231.73
2018-05-13T02:32:59.975Z,99228.69
2018-05-13T02:35:27.521Z,99230.02
2018-05-13T02:37:55.093Z,99225.20
2018-05-13T02:40:22.652Z,99231.84
2018-05-13T02:42:50.204Z,99226.95
2018-05-13T02:45:17.759Z,99232.19
2018-05-13T02:47:45.318Z,99236.23
2018-05-13T02:50:12.912Z,99237.05
2018-05-13T02:52:40.492Z,99233.52
2018-05-13T02:55:08.045Z,99234.42
2018-05-13T02:57:35.588Z,99235.83
2018-05-13T03:00:03.134Z,99232.30
2018-05-13T03:02:30.717Z,99231.45
2018-05-13T03:04:58.261Z,99238.09
2018-05-13T03:07:25.838Z,99239.73
2018-05-13T03:09:53.414Z,99241.38
2018-05-13T03:12:20.964Z,99249.61
2018-05-13T03:14:48.495Z,99249.54
2018-05-13T03:17:16.046Z,99250.41
2018-05-13T03:19:43.624Z,99250.80
2018-05-13T03:22:11.252Z,99250.66
2018-05-13T03:24:38.845Z,99249.18
2018-05-13T03:27:06.477Z,99249.91
2018-05-13T03:29:34.053Z,99252.08
2018-05-13T03:32:01.681Z,99256.55
2018-05-13T03:34:29.254Z,99261.55
2018-05-13T03:36:56.820Z,99269.10
2018-05-13T03:39:24.398Z,99271.83
2018-05-13T03:41:52.001Z,99271.48
2018-05-13T03:44:19.535Z,99268.63
2018-05-13T03:46:47.092Z,99266.53
2018-05-13T03:49:14.604Z,99270.59
2018-05-13T03:51:42.141Z,99274.05
2018-05-13T03:54:09.706Z,99277.91
2018-05-13T03:56:37.290Z,99281.76
2018-05-13T03:59:04.840Z,99279.91
2018-05-13T04:01:32.424Z,99275.64
2018-05-13T04:03:59.972Z,99275.88
2018-05-13T04:06:27.548Z,99269.92
2018-05-13T04:09:06.862Z,99260.45
2018-05-13T04:14:54.175Z,99262.58
2018-05-13T04:17:21.709Z,99263.69
2018-05-13T04:19:49.252Z,99276.13
2018-05-13T04:22:16.798Z,99291.98
2018-05-13T04:24:44.351Z,99280.17
2018-05-13T04:27:11.890Z,99278.89
2018-05-13T04:29:39.431Z,99290.83
2018-05-13T04:32:06.990Z,99290.45
2018-05-13T04:34:34.533Z,99290.19
2018-05-13T04:37:02.043Z,99285.14
2018-05-13T04:39:30.406Z,99277.62
2018-05-13T04:41:57.953Z,99274.84
2018-05-13T04:44:25.518Z,99273.25
2018-05-13T04:46:53.164Z,99281.95
2018-05-13T04:49:20.736Z,99285.37
2018-05-13T04:51:48.303Z,99286.28
2018-05-13T04:54:15.856Z,99287.42
2018-05-13T04:56:43.388Z,99291.33
2018-05-13T04:59:10.926Z,99294.34
2018-05-13T05:01:38.474Z,99295.48
2018-05-13T05:04:06.068Z,99283.88
2018-05-13T05:06:34.046Z,99285.55
2018-05-13T05:09:01.646Z,99284.11
2018-05-13T05:11:29.167Z,99292.59
2018-05-13T05:13:56.731Z,99293.08
2018-05-13T05:16:24.317Z,99291.14
2018-05-13T05:18:51.852Z,99285.39
2018-05-13T05:21:19.401Z,99291.80
2018-05-13T05:23:46.989Z,99292.63
2018-05-13T05:26:14.537Z,99289.53
2018-05-13T05:28:42.118Z,99279.79
2018-05-13T05:31:09.636Z,99272.99
2018-05-13T05:33:37.205Z,99276.04
2018-05-13T05:36:04.773Z,99283.91
2018-05-13T05:38:32.324Z,99294.48
2018-05-13T05:40:59.876Z,99298.02
2018-05-13T05:43:27.473Z,99298.20
2018-05-13T05:45:55.008Z,99304.16
2018-05-13T05:48:22.574Z,99313.53
2018-05-13T05:50:50.156Z,99318.29
2018-05-13T05:53:17.678Z,99320.39
2018-05-13T05:55:45.280Z,99324.65
2018-05-13T05:58:12.808Z,99326.27
2018-05-13T06:00:40.376Z,99323.03
2018-05-13T06:03:07.979Z,99332.14
2018-05-13T06:05:36.156Z,99332.59
2018-05-13T06:08:03.730Z,99341.53
2018-05-13T06:10:31.337Z,99347.29
2018-05-13T06:12:58.904Z,99343.29
2018-05-13T06:15:26.479Z,99349.63
2018-05-13T06:17:54.035Z,99347.27
2018-05-13T06:20:21.621Z,99358.23
2018-05-13T06:22:49.153Z,99358.13
2018-05-13T06:25:16.782Z,99356.99
2018-05-13T06:27:44.324Z,99355.81
2018-05-13T06:30:11.863Z,99357.76
2018-05-13T06:32:40.059Z,99354.08
2018-05-13T06:35:07.633Z,99357.45
2018-05-13T06:37:35.238Z,99369.70
2018-05-13T06:40:02.806Z,99373.16
2018-05-13T06:42:30.383Z,99377.13
2018-05-13T06:44:57.964Z,99377.95
2018-05-13T06:47:25.568Z,99378.95
2018-05-13T06:49:53.725Z,99383.86
2018-05-13T06:52:21.300Z,99382.65
2018-05-13T06:54:52.185Z,99380.09
2018-05-13T06:57:19.817Z,99380.06
2018-05-13T06:59:47.372Z,99376.97
2018-05-13T07:02:15.003Z,99372.62
2018-05-13T07:04:42.589Z,99364.66
2018-05-13T07:07:10.173Z,99367.31
2018-05-13T07:09:37.752Z,99364.78
2018-05-13T07:12:05.368Z,99370.44
2018-05-13T07:14:32.940Z,99371.47
2018-05-13T07:17:00.724Z,99369.86
2018-05-13T07:19:28.332Z,99371.91
2018-05-13T07:21:55.903Z,99364.86
2018-05-13T07:24:23.471Z,99364.80
2018-05-13T07:26:51.037Z,99365.97
2018-05-13T07:29:18.710Z,99372.62
2018-05-13T07:31:46.271Z,99361.85
2018-05-13T07:34:13.812Z,99358.93
2018-05-13T07:36:41.359Z,99358.36
2018-05-13T07:39:08.935Z,99367.11
2018-05-13T07:41:36.487Z,99363.18
2018-05-13T07:44:04.035Z,99365.99
2018-05-13T07:46:31.587Z,99370.95
2018-05-13T07:48:59.148Z,99370.23
2018-05-13T07:51:26.756Z,99371.92
2018-05-13T07:53:54.322Z,99372.33
2018-05-13T07:56:21.937Z,99367.28
2018-05-13T07:58:49.484Z,99364.64
2018-05-13T08:01:17.068Z,99367.92
2018-05-13T08:03:44.663Z,99370.97
2018-05-13T08:06:12.360Z,99369.02
2018-05-13T08:08:39.911Z,99383.13
2018-05-13T08:11:07.572Z,99379.56
2018-05-13T08:13:35.299Z,99383.00
2018-05-13T08:16:02.841Z,99403.62
2018-05-13T08:18:30.375Z,99405.14
2018-05-13T08:20:57.962Z,99401.98
2018-05-13T08:23:25.526Z,99400.64
2018-05-13T08:25:53.206Z,99423.50
2018-05-13T08:28:20.781Z,99431.38
2018-05-13T08:30:48.423Z,99438.45
2018-05-13T08:33:16.414Z,99437.59
2018-05-13T08:35:43.993Z,99436.64
2018-05-13T08:38:11.559Z,99445.97
2018-05-13T08:40:39.116Z,99430.37
2018-05-13T08:43:06.740Z,99455.57
2018-05-13T08:45:34.380Z,99450.45
2018-05-13T08:48:01.997Z,99406.95
2018-05-13T08:50:29.579Z,99382.55
2018-05-13T08:52:57.157Z,99375.45
2018-05-13T08:55:24.745Z,99398.75
2018-05-13T08:57:52.343Z,99405.12
2018-05-13T09:00:19.970Z,99406.63
2018-05-13T09:02:47.546Z,99401.13
2018-05-13T09:05:15.132Z,99386.33
2018-05-13T09:07:42.700Z,99381.96
2018-05-13T09:10:10.622Z,99375.30
2018-05-13T09:12:38.225Z,99363.07
2018-05-13T09:15:05.775Z,99359.76
2018-05-13T09:17:33.327Z,99359.09
2018-05-13T09:20:01.149Z,99358.98
2018-05-13T09:22:28.694Z,99365.08
2018-05-13T09:24:56.340Z,99378.01
2018-05-13T09:27:23.931Z,99380.65
2018-05-13T09:29:51.487Z,99387.44
2018-05-13T09:32:19.046Z,99390.14
2018-05-13T09:34:46.598Z,99394.80
2018-05-13T09:37:14.165Z,99402.33
2018-05-13T09:39:41.685Z,99402.58
2018-05-13T09:42:09.232Z,99414.85
2018-05-13T09:44:36.806Z,99425.30
2018-05-13T09:47:04.414Z,99419.48
2018-05-13T09:49:31.944Z,99419.80
2018-05-13T09:51:59.555Z,99416.95
2018-05-13T09:54:27.089Z,99407.20
2018-05-13T09:56:54.821Z,99439.00
2018-05-13T09:59:24.449Z,99446.59
2018-05-13T10:01:52.014Z,99453.00
2018-05-13T10:04:19.620Z,99438.89
2018-05-13T10:06:47.169Z,99412.72
2018-05-13T10:09:14.755Z,99388.02
2018-05-13T10:11:42.383Z,99393.39
2018-05-13T10:14:09.957Z,99415.23
2018-05-13T10:16:37.504Z,99439.48
2018-05-13T10:19:05.089Z,99444.67
2018-05-13T10:21:32.633Z,99460.40
2018-05-13T10:24:00.232Z,99449.06
2018-05-13T10:26:27.799Z,99437.66
2018-05-13T10:28:55.359Z,99428.77
2018-05-13T10:31:22.926Z,99434.17
2018-05-13T10:33:51.463Z,99439.02
2018-05-13T10:36:19.073Z,99449.50
2018-05-13T10:38:46.575Z,99480.36
2018-05-13T10:41:14.183Z,99502.99
2018-05-13T10:43:41.754Z,99488.88
2018-05-13T10:46:09.388Z,99485.98
2018-05-13T10:48:36.976Z,99457.00
2018-05-13T10:51:04.519Z,99446.77
2018-05-13T10:53:32.118Z,99455.09
2018-05-13T10:55:59.659Z,99470.97
2018-05-13T10:58:27.213Z,99454.05
2018-05-13T11:00:54.745Z,99432.22
2018-05-13T11:03:22.274Z,99423.59
2018-05-13T11:05:49.811Z,99430.34
2018-05-13T11:08:17.381Z,99428.33
2018-05-13T11:10:44.956Z,99433.76
2018-05-13T11:13:12.484Z,99438.27
2018-05-13T11:15:40.016Z,99452.74
2018-05-13T11:18:08.459Z,99472.14
2018-05-13T11:20:36.107Z,99480.66
2018-05-13T11:23:03.565Z,99494.31
2018-05-13T11:25:31.119Z,99502.32
2018-05-13T11:27:58.682Z,99473.00
2018-05-13T11:30:26.231Z,99460.06
2018-05-13T11:32:53.755Z,99457.41
2018-05-13T11:35:21.731Z,99465.91
2018-05-13T11:37:49.290Z,99470.42
2018-05-13T11:40:16.849Z,99477.69
2018-05-13T11:42:44.445Z,99470.59
2018-05-13T11:45:11.988Z,99467.76
2018-05-13T11:47:39.531Z,99471.49
2018-05-13T11:50:07.154Z,99462.13
2018-05-13T11:52:34.692Z,99453.73
2018-05-13T11:55:02.275Z,99448.14
2018-05-13T11:57:29.828Z,99454.58
2018-05-13T11:59:57.387Z,99436.56
2018-05-13T12:02:24.955Z,99432.64
2018-05-13T12:04:52.496Z,99429.03
2018-05-13T12:07:20.040Z,99446.41
2018-05-13T12:09:47.614Z,99466.67
2018-05-13T12:12:15.156Z,99479.96
2018-05-13T12:14:42.726Z,99471.81
2018-05-13T12:17:10.278Z,99464.06
2018-05-13T12:19:37.832Z,99457.09
2018-05-13T12:22:05.379Z,99459.28
2018-05-13T12:24:32.943Z,99463.44
2018-05-13T12:27:00.569Z,99460.06
2018-05-13T12:29:28.150Z,99453.62
2018-05-13T12:31:55.755Z,99461.52
2018-05-13T12:34:23.343Z,99457.58
2018-05-13T12:36:50.874Z,99448.64
2018-05-13T12:39:18.451Z,99446.70
2018-05-13T12:41:45.997Z,99443.17
2018-05-13T12:44:13.612Z,99440.58
2018-05-13T12:46:41.164Z,99441.57
2018-05-13T12:49:08.717Z,99436.43
2018-05-13T12:51:36.345Z,99443.08
2018-05-13T12:54:03.914Z,99444.53
2018-05-13T12:56:31.494Z,99448.28
2018-05-13T12:58:59.106Z,99441.36
2018-05-13T13:01:26.708Z,99448.83
2018-05-13T13:03:54.335Z,99447.09
2018-05-13T13:06:21.870Z,99440.45
2018-05-13T13:08:49.428Z,99443.38
2018-05-13T13:11:16.977Z,99435.72
2018-05-13T13:13:44.549Z,99432.89
2018-05-13T13:16:12.140Z,99429.19
2018-05-13T13:18:39.710Z,99429.43
2018-05-13T13:21:07.264Z,99425.83
2018-05-13T13:23:34.833Z,99416.66
2018-05-13T13:26:02.495Z,99413.31
2018-05-13T13:28:30.071Z,99414.12
2018-05-13T13:30:57.659Z,99425.72
2018-05-13T13:33:25.180Z,99438.56
2018-05-13T13:35:52.792Z,99445.41
2018-05-13T13:38:20.350Z,99459.22
2018-05-13T13:40:47.949Z,99462.44
2018-05-13T13:43:15.541Z,99453.83
2018-05-13T13:45:43.118Z,99426.17
2018-05-13T13:48:10.712Z,99406.73
2018-05-13T13:50:38.274Z,99409.67
2018-05-13T13:53:05.829Z,99422.19
2018-05-13T13:55:33.421Z,99430.20
2018-05-13T13:58:01.064Z,99434.26
2018-05-13T14:00:28.679Z,99424.11
2018-05-13T14:02:56.251Z,99417.36
2018-05-13T14:05:24.723Z,99387.55
2018-05-13T14:07:52.293Z,99404.38
2018-05-13T14:10:19.969Z,99401.13
2018-05-13T14:12:47.624Z,99397.66
2018-05-13T14:15:15.279Z,99394.73
2018-05-13T14:17:42.892Z,99392.29
2018-05-13T14:20:10.496Z,99410.52
2018-05-13T14:22:38.033Z,99406.30
2018-05-13T14:25:05.607Z,99413.28
2018-05-13T14:27:33.180Z,99412.45
2018-05-13T14:30:00.815Z,99402.52
2018-05-13T14:32:28.684Z,99385.45
2018-05-13T14:34:56.546Z,99388.00
2018-05-13T14:37:24.184Z,99377.83
2018-05-13T14:39:51.812Z,99381.48
2018-05-13T14:42:19.545Z,99381.67
2018-05-13T14:44:47.124Z,99380.25
2018-05-13T14:47:14.729Z,99375.36
2018-05-13T14:49:42.379Z,99370.61
2018-05-13T14:52:09.976Z,99369.66
2018-05-13T14:54:37.772Z,99370.03
2018-05-13T14:57:05.436Z,99365.05
2018-05-13T14:59:33.865Z,99371.25
2018-05-13T15:02:01.425Z,99365.36
2018-05-13T15:04:29.029Z,99377.53
2018-05-13T15:06:56.596Z,99373.42
2018-05-13T15:09:25.264Z,99381.67
2018-05-13T15:11:51.742Z,99384.48
2018-05-13T15:14:19.332Z,99387.41
2018-05-13T15:16:46.977Z,99381.70
2018-05-13T15:19:14.547Z,99392.42
2018-05-13T15:21:42.154Z,99396.56
2018-05-13T15:24:09.745Z,99401.58
2018-05-13T15:26:37.383Z,99412.02
2018-05-13T15:29:05.011Z,99416.66
2018-05-13T15:31:32.554Z,99413.94
2018-05-13T15:34:00.153Z,99416.09
2018-05-13T15:36:28.276Z,99424.29
2018-05-13T15:38:55.858Z,99428.31
2018-05-13T15:41:23.390Z,99431.36
2018-05-13T15:43:50.994Z,99417.93
2018-05-13T15:46:18.600Z,99424.92
2018-05-13T15:48:46.187Z,99420.42
2018-05-13T15:51:13.800Z,99421.48
2018-05-13T15:53:41.449Z,99420.40
2018-05-13T15:56:09.019Z,99425.33
2018-05-13T15:58:36.634Z,99424.56
2018-05-13T16:01:04.176Z,99429.00
2018-05-13T16:03:31.803Z,99422.08
2018-05-13T16:05:59.426Z,99418.16
2018-05-13T16:08:27.099Z,99417.86
2018-05-13T16:10:54.807Z,99422.22
2018-05-13T16:13:22.387Z,99420.34
2018-05-13T16:15:49.973Z,99411.94
2018-05-13T16:18:17.572Z,99427.51
2018-05-13T16:20:45.278Z,99409.43
2018-05-13T16:23:12.864Z,99403.38
2018-05-13T16:25:40.415Z,99404.36
2018-05-13T16:28:08.031Z,99400.52
2018-05-13T16:30:35.625Z,99394.37
2018-05-13T16:33:03.185Z,99385.27
2018-05-13T16:35:30.813Z,99385.41
2018-05-13T16:37:58.404Z,99376.02
2018-05-13T16:40:26.135Z,99381.08
2018-05-13T16:42:55.285Z,99380.52
2018-05-13T16:45:22.884Z,99377.16
2018-05-13T16:47:50.519Z,99382.09
2018-05-13T16:50:18.310Z,99379.58
2018-05-13T16:52:45.968Z,99380.55
2018-05-13T16:55:13.528Z,99381.08
2018-05-13T16:57:41.164Z,99381.18
2018-05-13T17:00:08.886Z,99380.16
2018-05-13T17:02:36.616Z,99379.68
2018-05-13T17:05:04.270Z,99379.25
2018-05-13T17:07:31.949Z,99389.50
2018-05-13T17:09:59.588Z,99396.48
2018-05-13T17:12:27.181Z,99399.11
2018-05-13T17:14:54.825Z,99408.83
2018-05-13T17:17:22.455Z,99413.65
2018-05-13T17:19:49.987Z,99412.77
2018-05-13T17:22:17.605Z,99418.19
2018-05-13T17:24:45.476Z,99416.52
2018-05-13T17:27:13.112Z,99413.40
2018-05-13T17:29:40.721Z,99404.73
2018-05-13T17:32:08.307Z,99418.26
2018-05-13T17:34:35.899Z,99417.42
2018-05-13T17:37:03.479Z,99413.22
2018-05-13T17:39:31.091Z,99410.73
2018-05-13T17:41:58.662Z,99416.88
2018-05-13T17:44:26.366Z,99431.52
2018-05-13T17:46:54.225Z,99435.50
2018-05-13T17:49:21.880Z,99445.19
2018-05-13T17:51:57.011Z,99456.20
2018-05-13T17:54:25.497Z,99367.07
2018-05-13T17:56:53.152Z,99443.51
2018-05-13T17:59:20.817Z,99447.14
2018-05-13T18:01:48.490Z,99450.34
2018-05-13T18:04:16.097Z,99455.66
2018-05-13T18:06:43.819Z,99457.92
2018-05-13T18:09:11.517Z,99457.95
2018-05-13T18:11:39.487Z,99460.64
2018-05-13T18:14:07.125Z,99462.07
2018-05-13T18:16:34.692Z,99461.72
2018-05-13T18:19:02.281Z,99460.87
2018-05-13T18:21:29.957Z,99459.13
2018-05-13T18:23:57.510Z,99459.16
2018-05-13T18:26:25.304Z,99460.52
2018-05-13T18:28:52.998Z,99452.56
2018-05-13T18:31:20.654Z,99451.72
2018-05-13T18:33:48.585Z,99450.20
2018-05-13T18:36:16.903Z,99443.24
2018-05-13T18:38:44.762Z,99440.45
2018-05-13T18:41:12.659Z,99436.77
2018-05-13T18:43:41.143Z,99447.55
2018-05-13T18:46:08.901Z,99447.03
2018-05-13T18:48:36.541Z,99439.07
2018-05-13T18:51:04.367Z,99436.00
2018-05-13T18:53:32.057Z,99434.25
2018-05-13T18:55:59.720Z,99429.98
2018-05-13T18:58:27.640Z,99435.91
2018-05-13T19:00:55.378Z,99437.36
2018-05-13T19:03:23.025Z,99434.19
2018-05-13T19:05:50.718Z,99426.16
2018-05-13T19:08:18.559Z,99421.27
2018-05-13T19:10:46.188Z,99419.59
2018-05-13T19:13:13.793Z,99423.19
2018-05-13T19:15:41.372Z,99425.55
2018-05-13T19:18:08.921Z,99429.20
2018-05-13T19:20:36.490Z,99427.97
2018-05-13T19:23:04.087Z,99432.38
2018-05-13T19:25:31.662Z,99424.03
2018-05-13T19:27:59.216Z,99426.68
2018-05-13T19:30:26.877Z,99424.99
2018-05-13T19:32:54.364Z,99423.08
2018-05-13T19:35:22.075Z,99426.22
2018-05-13T19:37:49.618Z,99423.18
2018-05-13T19:40:17.219Z,99420.33
2018-05-13T19:42:44.762Z,99414.05
2018-05-13T19:45:12.320Z,99422.63
2018-05-13T19:47:39.867Z,99421.33
2018-05-13T19:50:07.442Z,99417.32
2018-05-13T19:52:35.032Z,99412.38
2018-05-13T19:55:09.052Z,99424.34
2018-05-13T19:57:36.662Z,99431.00
2018-05-13T20:00:04.257Z,99435.41
2018-05-13T20:02:31.917Z,99430.55
2018-05-13T20:04:59.561Z,99439.38
2018-05-13T20:07:27.157Z,99440.77
2018-05-13T20:09:55.555Z,99450.63
2018-05-13T20:12:23.274Z,99459.55
2018-05-13T20:14:50.967Z,99458.75
2018-05-13T20:17:18.676Z,99461.85
2018-05-13T20:19:46.292Z,99477.80
2018-05-13T20:22:14.074Z,99472.06
2018-05-13T20:24:41.667Z,99487.56
2018-05-13T20:27:09.314Z,99498.65
2018-05-13T20:29:37.014Z,99507.63
2018-05-13T20:32:04.696Z,99517.79
2018-05-13T20:34:33.289Z,99525.89
2018-05-13T20:37:01.051Z,99529.52
2018-05-13T20:39:28.675Z,99539.94
2018-05-13T20:41:56.315Z,99547.27
2018-05-13T20:44:24.110Z,99552.63
2018-05-13T20:46:51.601Z,99557.35
2018-05-13T20:49:19.161Z,99554.60
2018-05-13T20:51:46.849Z,99552.04
2018-05-13T20:54:14.961Z,99551.22
2018-05-13T20:56:42.535Z,99542.21
2018-05-13T20:59:10.121Z,99539.47
2018-05-13T21:01:37.669Z,99533.23
2018-05-13T21:04:05.259Z,99521.64
2018-05-13T21:06:32.833Z,99526.86
2018-05-13T21:09:00.429Z,99519.78
2018-05-13T21:11:27.981Z,99518.91
2018-05-13T21:13:55.557Z,99512.70
2018-05-13T21:16:23.116Z,99507.88
2018-05-13T21:18:50.706Z,99502.58
2018-05-13T21:21:18.305Z,99495.34
2018-05-13T21:23:45.881Z,99487.72
2018-05-13T21:26:13.477Z,99482.00
2018-05-13T21:28:41.082Z,99481.13
2018-05-13T21:31:08.653Z,99468.05
2018-05-13T21:33:36.263Z,99480.49
2018-05-13T21:36:03.864Z,99485.44
2018-05-13T21:38:31.546Z,99487.23
2018-05-13T21:40:59.126Z,99487.36
2018-05-13T21:43:26.701Z,99505.55
2018-05-13T21:45:54.391Z,99512.72
2018-05-13T21:48:22.017Z,99504.80
2018-05-13T21:50:49.635Z,99507.81
2018-05-13T21:53:17.238Z,99516.67
2018-05-13T21:55:44.817Z,99522.93
2018-05-13T21:58:12.417Z,99503.53
2018-05-13T22:00:39.982Z,99493.02
2018-05-13T22:03:07.564Z,99510.45
2018-05-13T22:05:35.135Z,99504.30
2018-05-13T22:08:02.718Z,99501.23
2018-05-13T22:10:30.245Z,99503.86
2018-05-13T22:12:58.808Z,99506.95
2018-05-13T22:15:26.347Z,99506.17
2018-05-13T22:17:53.899Z,99519.05
2018-05-13T22:20:21.419Z,99511.16
2018-05-13T22:22:48.978Z,99490.17
2018-05-13T22:25:16.516Z,99485.44
2018-05-13T22:27:44.067Z,99481.47
2018-05-13T22:30:11.665Z,99458.10
2018-05-13T22:32:39.241Z,99447.47
2018-05-13T22:35:06.801Z,99442.14
2018-05-13T22:37:34.414Z,99439.16
2018-05-13T22:40:02.028Z,99450.72
2018-05-13T22:42:29.573Z,99447.89
2018-05-13T22:44:57.232Z,99447.61
2018-05-13T22:47:24.794Z,99438.06
2018-05-13T22:49:52.369Z,99432.01
2018-05-13T22:52:20.079Z,99430.80
2018-05-13T22:54:47.688Z,99437.98
2018-05-13T22:57:15.261Z,99435.88
2018-05-13T22:59:42.857Z,99436.47
2018-05-13T23:02:10.393Z,99429.42
2018-05-13T23:04:38.064Z,99430.36
2018-05-13T23:07:05.643Z,99430.89
2018-05-13T23:09:33.231Z,99430.78
2018-05-13T23:12:00.786Z,99430.78
2018-05-13T23:14:28.385Z,99432.03
2018-05-13T23:16:55.954Z,99429.37
2018-05-13T23:19:23.553Z,99425.80
2018-05-13T23:21:51.092Z,99430.67
2018-05-13T23:24:18.678Z,99422.00
2018-05-13T23:26:46.218Z,99416.25
2018-05-13T23:29:13.793Z,99415.98
2018-05-13T23:31:41.340Z,99424.73
2018-05-13T23:34:08.936Z,99419.44
2018-05-13T23:36:36.466Z,99421.25
2018-05-13T23:39:04.027Z,99411.91
2018-05-13T23:41:31.588Z,99405.36
2018-05-13T23:43:59.123Z,99404.12
2018-05-13T23:46:26.721Z,99402.41
2018-05-13T23:48:54.272Z,99407.33
2018-05-13T23:51:21.864Z,99410.73
2018-05-13T23:53:49.423Z,99413.36
2018-05-13T23:56:17.044Z,99405.84
2018-05-13T23:58:44.613Z,99404.23
